Big Bear Station Historical Data
Daily Summary for July 23, 2017 Units:  English    Metric   Both
« Previous Day
Next Day »
Daily Weekly Monthly Yearly Custom
  High: Low: Average:
Temperature: 84.2 °F 56.1 °F 69.1 °F
Dew Point: 56.9 °F 45.5 °F 50.8 °F
Humidity: 78 % 35 % 54 %
Wind Speed: 6.3 mph 0.0 mph 1.8 mph
Wind Gust: -999.0 mph - -
Wind:- - West
Pressure: 23.60 in 23.53 in -
Precipitation: 0.00 in    
Historical Graphs
 
 
Tabular Data for July 23, 2017
Time Temperature Dew Point Pressure Wind Wind Speed Wind Gust Humidity Rainfall Rate (Hourly)
00:14 60.8 °F 45.5 °F 23.60 in Calm   -999.0 mph 57 % 0 in
00:30 60.4 °F 45.6 °F 23.60 in Calm   -999.0 mph 58 % 0 in
00:45 60.3 °F 46.8 °F 23.59 in Calm   -999.0 mph 61 % 0 in
01:00 60.1 °F 47.0 °F 23.59 in Calm   -999.0 mph 62 % 0 in
01:15 59.7 °F 47.5 °F 23.59 in Calm   -999.0 mph 64 % 0 in
01:30 59.4 °F 46.8 °F 23.59 in Calm   -999.0 mph 63 % 0 in
01:46 59.0 °F 46.4 °F 23.59 in Calm   -999.0 mph 63 % 0 in
02:01 58.8 °F 46.7 °F 23.58 in Calm   -999.0 mph 64 % 0 in
02:16 58.8 °F 47.1 °F 23.58 in Calm   -999.0 mph 65 % 0 in
02:31 58.5 °F 47.6 °F 23.58 in Calm   -999.0 mph 67 % 0 in
02:46 58.1 °F 47.2 °F 23.58 in Calm   -999.0 mph 67 % 0 in
03:02 57.9 °F 47.4 °F 23.58 in Calm   -999.0 mph 68 % 0 in
03:17 57.7 °F 48.0 °F 23.57 in Calm   -999.0 mph 70 % 0 in
03:32 57.4 °F 47.7 °F 23.57 in Calm   -999.0 mph 70 % 0 in
03:47 57.2 °F 47.5 °F 23.57 in Calm   -999.0 mph 70 % 0 in
04:02 57.0 °F 46.9 °F 23.57 in Calm   -999.0 mph 69 % 0 in
04:18 57.0 °F 47.3 °F 23.57 in Calm   -999.0 mph 70 % 0 in
04:33 56.8 °F 47.1 °F 23.57 in Calm   -999.0 mph 70 % 0 in
04:48 56.7 °F 47.0 °F 23.58 in Calm   -999.0 mph 70 % 0 in
05:03 56.1 °F 47.2 °F 23.58 in Calm   -999.0 mph 72 % 0 in
05:19 56.5 °F 47.2 °F 23.58 in Calm   -999.0 mph 71 % 0 in
05:34 56.3 °F 47.4 °F 23.58 in Calm   -999.0 mph 72 % 0 in
05:49 56.1 °F 46.8 °F 23.58 in Calm   -999.0 mph 71 % 0 in
06:04 56.3 °F 47.8 °F 23.58 in Calm   -999.0 mph 73 % 0 in
06:19 56.3 °F 48.1 °F 23.58 in Calm   -999.0 mph 74 % 0 in
06:35 56.3 °F 48.5 °F 23.58 in Calm   -999.0 mph 75 % 0 in
06:50 56.8 °F 48.6 °F 23.58 in Calm   -999.0 mph 74 % 0 in
07:05 57.0 °F 49.5 °F 23.58 in Calm   -999.0 mph 76 % 0 in
07:20 57.9 °F 50.4 °F 23.59 in Calm   -999.0 mph 76 % 0 in
07:36 58.6 °F 51.8 °F 23.59 in Calm   -999.0 mph 78 % 0 in
07:51 60.1 °F 52.9 °F 23.59 in Calm   -999.0 mph 77 % 0 in
08:06 61.9 °F 53.2 °F 23.59 in Calm   -999.0 mph 73 % 0 in
08:22 63.9 °F 53.1 °F 23.59 in Calm   -999.0 mph 68 % 0 in
08:37 65.1 °F 53.0 °F 23.59 in Calm   -999.0 mph 65 % 0 in
08:52 67.5 °F 53.1 °F 23.59 in Calm   -999.0 mph 60 % 0 in
09:07 69.8 °F 53.9 °F 23.59 in Calm   -999.0 mph 57 % 0 in
09:22 72.1 °F 53.0 °F 23.59 in NW 2.2 mph -999.0 mph 51 % 0 in
09:38 74.5 °F 52.4 °F 23.59 in NW 2.7 mph -999.0 mph 46 % 0 in
09:53 76.5 °F 53.6 °F 23.59 in NW 3.2 mph -999.0 mph 45 % 0 in
10:08 77.0 °F 53.4 °F 23.59 in NNW 4.2 mph -999.0 mph 44 % 0 in
10:24 77.5 °F 53.9 °F 23.59 in NNE 4.7 mph -999.0 mph 44 % 0 in
10:39 77.2 °F 53.6 °F 23.59 in NW 2.7 mph -999.0 mph 44 % 0 in
10:54 77.7 °F 53.4 °F 23.59 in WNW 3.2 mph -999.0 mph 43 % 0 in
11:09 77.2 °F 53.6 °F 23.59 in NNW 3.7 mph -999.0 mph 44 % 0 in
11:25 77.5 °F 52.6 °F 23.59 in SSW 1.7 mph -999.0 mph 42 % 0 in
11:40 78.4 °F 54.7 °F 23.59 in NNW 3.7 mph -999.0 mph 44 % 0 in
11:55 78.3 °F 54.6 °F 23.59 in NW 1.1 mph -999.0 mph 44 % 0 in
12:11 76.8 °F 53.9 °F 23.59 in NNW 4.7 mph -999.0 mph 45 % 0 in
12:26 77.7 °F 54.1 °F 23.59 in WNW 3.2 mph -999.0 mph 44 % 0 in
12:41 77.9 °F 54.9 °F 23.59 in NW 4.2 mph -999.0 mph 45 % 0 in
12:56 77.9 °F 54.9 °F 23.59 in NW 4.7 mph -999.0 mph 45 % 0 in
13:12 78.4 °F 55.9 °F 23.59 in NNW 6.3 mph -999.0 mph 46 % 0 in
13:28 80.2 °F 56.9 °F 23.58 in NW 5.3 mph -999.0 mph 45 % 0 in
13:43 78.6 °F 54.9 °F 23.58 in West 2.7 mph -999.0 mph 44 % 0 in
13:58 80.6 °F 56.0 °F 23.58 in NW 4.7 mph -999.0 mph 43 % 0 in
14:13 80.6 °F 56.0 °F 23.57 in NNE 3.7 mph -999.0 mph 43 % 0 in
14:29 80.6 °F 54.1 °F 23.57 in WNW 3.7 mph -999.0 mph 40 % 0 in
14:44 82.0 °F 56.7 °F 23.56 in NNW 4.2 mph -999.0 mph 42 % 0 in
14:59 82.6 °F 55.1 °F 23.56 in NW 5.3 mph -999.0 mph 39 % 0 in
15:14 84.2 °F 55.9 °F 23.55 in NNW 4.7 mph -999.0 mph 38 % 0 in
15:30 82.9 °F 56.1 °F 23.55 in WNW 4.7 mph -999.0 mph 40 % 0 in
15:45 80.4 °F 55.9 °F 23.55 in WNW 5.3 mph -999.0 mph 43 % 0 in
16:00 80.2 °F 53.7 °F 23.54 in South 4.2 mph -999.0 mph 40 % 0 in
16:16 81.7 °F 54.3 °F 23.54 in NNW 4.7 mph -999.0 mph 39 % 0 in
16:32 81.9 °F 52.3 °F 23.54 in WNW 5.3 mph -999.0 mph 36 % 0 in
16:47 82.6 °F 53.0 °F 23.54 in WSW 2.7 mph -999.0 mph 36 % 0 in
17:02 83.8 °F 53.2 °F 23.54 in NNW 5.3 mph -999.0 mph 35 % 0 in
17:17 83.7 °F 53.9 °F 23.54 in ENE 4.7 mph -999.0 mph 36 % 0 in
17:33 83.5 °F 53.7 °F 23.54 in NW 4.7 mph -999.0 mph 36 % 0 in
17:48 82.4 °F 52.8 °F 23.54 in NW 6.3 mph -999.0 mph 36 % 0 in
18:04 82.9 °F 52.5 °F 23.53 in NW 4.7 mph -999.0 mph 35 % 0 in
18:19 81.1 °F 50.9 °F 23.53 in SW 1.1 mph -999.0 mph 35 % 0 in
18:34 78.6 °F 49.4 °F 23.53 in North 2.2 mph -999.0 mph 36 % 0 in
18:49 79.2 °F 49.2 °F 23.53 in WNW 1.7 mph -999.0 mph 35 % 0 in
19:04 77.2 °F 48.2 °F 23.54 in NW 4.7 mph -999.0 mph 36 % 0 in
19:20 73.8 °F 46.6 °F 23.54 in NNE 1.7 mph -999.0 mph 38 % 0 in
19:35 71.4 °F 47.1 °F 23.54 in North 1.1 mph -999.0 mph 42 % 0 in
19:50 69.8 °F 46.9 °F 23.54 in Calm   -999.0 mph 44 % 0 in
20:06 68.9 °F 47.8 °F 23.54 in NE 2.7 mph -999.0 mph 47 % 0 in
20:21 68.2 °F 48.9 °F 23.55 in NW 2.7 mph -999.0 mph 50 % 0 in
20:36 68.0 °F 48.1 °F 23.56 in Calm   -999.0 mph 49 % 0 in
20:51 67.8 °F 48.5 °F 23.56 in Calm   -999.0 mph 50 % 0 in
21:06 67.3 °F 48.0 °F 23.56 in South 1.7 mph -999.0 mph 50 % 0 in
21:22 66.9 °F 49.7 °F 23.57 in Calm   -999.0 mph 54 % 0 in
21:37 66.2 °F 49.6 °F 23.57 in Calm   -999.0 mph 55 % 0 in
21:52 65.5 °F 50.3 °F 23.57 in South 2.2 mph -999.0 mph 58 % 0 in
22:07 65.3 °F 50.6 °F 23.57 in North 2.2 mph -999.0 mph 59 % 0 in
22:22 65.1 °F 50.4 °F 23.57 in Calm   -999.0 mph 59 % 0 in
22:38 64.8 °F 50.6 °F 23.57 in Calm   -999.0 mph 60 % 0 in
22:53 64.0 °F 50.3 °F 23.57 in South 2.2 mph -999.0 mph 61 % 0 in
23:08 63.7 °F 50.0 °F 23.57 in Calm   -999.0 mph 61 % 0 in
23:23 63.1 °F 50.7 °F 23.57 in Calm   -999.0 mph 64 % 0 in
23:38 62.6 °F 50.7 °F 23.57 in South 1.1 mph -999.0 mph 65 % 0 in
23:54 62.2 °F 50.3 °F 23.57 in Calm   -999.0 mph 65 % 0 in
Big Bear CA Weather
Compliments of Weather Underground - 1.5 mb